sensor_id;sensor_type;location;lat;lon;timestamp;temperature;humidity
12839;DHT22;6486;51.034;5.262;2023-01-15T00:02:04;9.10;75.60
12839;DHT22;6486;51.034;5.262;2023-01-15T00:04:30;9.20;75.70
12839;DHT22;6486;51.034;5.262;2023-01-15T00:06:56;9.20;75.60
12839;DHT22;6486;51.034;5.262;2023-01-15T00:09:21;9.20;75.50
12839;DHT22;6486;51.034;5.262;2023-01-15T00:11:47;9.20;75.70
12839;DHT22;6486;51.034;5.262;2023-01-15T00:14:13;9.20;75.60
12839;DHT22;6486;51.034;5.262;2023-01-15T00:16:38;9.20;75.40
12839;DHT22;6486;51.034;5.262;2023-01-15T00:19:09;9.20;75.50
12839;DHT22;6486;51.034;5.262;2023-01-15T00:21:36;9.20;75.40
12839;DHT22;6486;51.034;5.262;2023-01-15T00:24:02;9.20;75.50
12839;DHT22;6486;51.034;5.262;2023-01-15T00:26:46;9.20;75.40
12839;DHT22;6486;51.034;5.262;2023-01-15T00:29:31;9.20;75.30
12839;DHT22;6486;51.034;5.262;2023-01-15T00:31:59;9.10;75.30
12839;DHT22;6486;51.034;5.262;2023-01-15T00:34:26;9.10;75.00
12839;DHT22;6486;51.034;5.262;2023-01-15T00:36:53;9.10;74.90
12839;DHT22;6486;51.034;5.262;2023-01-15T00:39:18;9.20;75.10
12839;DHT22;6486;51.034;5.262;2023-01-15T00:41:44;9.20;75.60
12839;DHT22;6486;51.034;5.262;2023-01-15T00:44:10;9.20;75.00
12839;DHT22;6486;51.034;5.262;2023-01-15T00:46:36;9.20;74.90
12839;DHT22;6486;51.034;5.262;2023-01-15T00:49:03;9.20;74.90
12839;DHT22;6486;51.034;5.262;2023-01-15T00:51:29;9.10;74.90
12839;DHT22;6486;51.034;5.262;2023-01-15T00:53:54;9.10;74.70
12839;DHT22;6486;51.034;5.262;2023-01-15T00:56:20;9.10;74.80
12839;DHT22;6486;51.034;5.262;2023-01-15T00:58:46;9.10;74.90
12839;DHT22;6486;51.034;5.262;2023-01-15T01:01:13;9.10;74.90
12839;DHT22;6486;51.034;5.262;2023-01-15T01:03:39;9.20;75.10
12839;DHT22;6486;51.034;5.262;2023-01-15T01:06:05;9.20;75.10
12839;DHT22;6486;51.034;5.262;2023-01-15T01:08:31;9.20;75.10
12839;DHT22;6486;51.034;5.262;2023-01-15T01:11:05;9.30;75.30
12839;DHT22;6486;51.034;5.262;2023-01-15T01:13:31;9.30;75.40
12839;DHT22;6486;51.034;5.262;2023-01-15T01:15:57;9.40;75.40
12839;DHT22;6486;51.034;5.262;2023-01-15T01:18:23;9.40;75.40
12839;DHT22;6486;51.034;5.262;2023-01-15T01:20:48;9.40;75.30
12839;DHT22;6486;51.034;5.262;2023-01-15T01:23:14;9.30;75.40
12839;DHT22;6486;51.034;5.262;2023-01-15T01:25:40;9.30;75.40
12839;DHT22;6486;51.034;5.262;2023-01-15T01:28:05;9.30;75.60
12839;DHT22;6486;51.034;5.262;2023-01-15T01:30:31;9.30;75.70
12839;DHT22;6486;51.034;5.262;2023-01-15T01:32:56;9.30;75.80
12839;DHT22;6486;51.034;5.262;2023-01-15T01:35:22;9.30;75.80
12839;DHT22;6486;51.034;5.262;2023-01-15T01:37:51;9.20;75.90
12839;DHT22;6486;51.034;5.262;2023-01-15T01:40:18;9.20;76.10
12839;DHT22;6486;51.034;5.262;2023-01-15T01:42:44;9.20;76.30
12839;DHT22;6486;51.034;5.262;2023-01-15T01:45:21;9.20;76.40
12839;DHT22;6486;51.034;5.262;2023-01-15T01:47:50;9.20;76.50
12839;DHT22;6486;51.034;5.262;2023-01-15T01:50:17;9.20;76.90
12839;DHT22;6486;51.034;5.262;2023-01-15T01:52:50;9.20;76.80
12839;DHT22;6486;51.034;5.262;2023-01-15T01:55:19;9.20;76.90
12839;DHT22;6486;51.034;5.262;2023-01-15T01:57:47;9.20;77.00
12839;DHT22;6486;51.034;5.262;2023-01-15T02:00:14;9.20;77.10
12839;DHT22;6486;51.034;5.262;2023-01-15T02:02:42;9.20;77.30
12839;DHT22;6486;51.034;5.262;2023-01-15T02:05:19;9.20;77.40
12839;DHT22;6486;51.034;5.262;2023-01-15T02:07:46;9.20;77.50
12839;DHT22;6486;51.034;5.262;2023-01-15T02:10:13;9.20;77.70
12839;DHT22;6486;51.034;5.262;2023-01-15T02:12:41;9.20;77.70
12839;DHT22;6486;51.034;5.262;2023-01-15T02:15:18;9.20;77.70
12839;DHT22;6486;51.034;5.262;2023-01-15T02:18:10;9.20;77.80
12839;DHT22;6486;51.034;5.262;2023-01-15T02:29:00;9.10;77.90
12839;DHT22;6486;51.034;5.262;2023-01-15T02:31:33;9.10;78.10
12839;DHT22;6486;51.034;5.262;2023-01-15T02:34:11;9.10;78.20
12839;DHT22;6486;51.034;5.262;2023-01-15T02:36:43;9.10;78.30
12839;DHT22;6486;51.034;5.262;2023-01-15T02:39:12;9.10;78.30
12839;DHT22;6486;51.034;5.262;2023-01-15T02:41:49;9.00;78.40
12839;DHT22;6486;51.034;5.262;2023-01-15T02:44:20;9.10;79.20
12839;DHT22;6486;51.034;5.262;2023-01-15T02:46:47;9.00;78.30
12839;DHT22;6486;51.034;5.262;2023-01-15T02:49:16;9.00;78.40
12839;DHT22;6486;51.034;5.262;2023-01-15T02:54:15;9.00;78.20
12839;DHT22;6486;51.034;5.262;2023-01-15T02:56:43;9.00;78.40
12839;DHT22;6486;51.034;5.262;2023-01-15T02:59:14;9.00;78.40
12839;DHT22;6486;51.034;5.262;2023-01-15T03:01:49;9.00;78.50
12839;DHT22;6486;51.034;5.262;2023-01-15T03:04:31;9.10;78.60
12839;DHT22;6486;51.034;5.262;2023-01-15T03:07:26;9.10;78.70
12839;DHT22;6486;51.034;5.262;2023-01-15T03:09:56;9.10;78.80
12839;DHT22;6486;51.034;5.262;2023-01-15T03:18:28;9.00;78.80
12839;DHT22;6486;51.034;5.262;2023-01-15T03:20:59;9.00;78.90
12839;DHT22;6486;51.034;5.262;2023-01-15T03:23:28;9.10;79.10
12839;DHT22;6486;51.034;5.262;2023-01-15T03:25:55;9.00;79.00
12839;DHT22;6486;51.034;5.262;2023-01-15T03:28:25;9.10;79.10
12839;DHT22;6486;51.034;5.262;2023-01-15T03:30:51;9.10;79.10
12839;DHT22;6486;51.034;5.262;2023-01-15T03:33:17;9.10;79.10
12839;DHT22;6486;51.034;5.262;2023-01-15T03:35:51;9.10;79.00
12839;DHT22;6486;51.034;5.262;2023-01-15T03:38:28;9.10;79.10
12839;DHT22;6486;51.034;5.262;2023-01-15T03:40:58;9.00;78.90
12839;DHT22;6486;51.034;5.262;2023-01-15T03:49:22;9.00;79.00
12839;DHT22;6486;51.034;5.262;2023-01-15T03:52:06;8.90;79.10
12839;DHT22;6486;51.034;5.262;2023-01-15T03:55:31;8.90;79.10
12839;DHT22;6486;51.034;5.262;2023-01-15T03:57:53;8.90;79.20
12839;DHT22;6486;51.034;5.262;2023-01-15T04:00:27;8.90;79.10
12839;DHT22;6486;51.034;5.262;2023-01-15T04:02:55;8.90;79.20
12839;DHT22;6486;51.034;5.262;2023-01-15T04:05:23;9.00;80.00
12839;DHT22;6486;51.034;5.262;2023-01-15T04:07:50;8.90;79.20
12839;DHT22;6486;51.034;5.262;2023-01-15T04:10:17;8.90;79.20
12839;DHT22;6486;51.034;5.262;2023-01-15T04:12:42;8.90;79.30
12839;DHT22;6486;51.034;5.262;2023-01-15T04:15:10;8.90;79.30
12839;DHT22;6486;51.034;5.262;2023-01-15T04:17:36;8.80;79.20
12839;DHT22;6486;51.034;5.262;2023-01-15T04:20:02;8.80;79.30
12839;DHT22;6486;51.034;5.262;2023-01-15T04:22:27;8.80;79.40
12839;DHT22;6486;51.034;5.262;2023-01-15T04:24:53;8.80;79.40
12839;DHT22;6486;51.034;5.262;2023-01-15T04:27:19;8.80;79.40
12839;DHT22;6486;51.034;5.262;2023-01-15T04:29:45;8.80;80.00
12839;DHT22;6486;51.034;5.262;2023-01-15T04:32:11;8.80;79.40
12839;DHT22;6486;51.034;5.262;2023-01-15T04:34:36;8.80;79.40
12839;DHT22;6486;51.034;5.262;2023-01-15T04:37:02;8.80;79.40
12839;DHT22;6486;51.034;5.262;2023-01-15T04:39:28;8.80;79.40
12839;DHT22;6486;51.034;5.262;2023-01-15T04:41:53;8.80;79.40
12839;DHT22;6486;51.034;5.262;2023-01-15T04:44:38;8.80;79.50
12839;DHT22;6486;51.034;5.262;2023-01-15T04:47:04;8.70;79.30
12839;DHT22;6486;51.034;5.262;2023-01-15T04:49:30;8.70;79.40
12839;DHT22;6486;51.034;5.262;2023-01-15T04:51:55;8.70;79.50
12839;DHT22;6486;51.034;5.262;2023-01-15T04:54:21;8.70;79.30
12839;DHT22;6486;51.034;5.262;2023-01-15T04:56:49;8.70;79.30
12839;DHT22;6486;51.034;5.262;2023-01-15T04:59:17;8.80;79.20
12839;DHT22;6486;51.034;5.262;2023-01-15T05:01:43;8.70;79.30
12839;DHT22;6486;51.034;5.262;2023-01-15T05:04:08;8.70;79.30
12839;DHT22;6486;51.034;5.262;2023-01-15T05:06:34;8.70;79.40
12839;DHT22;6486;51.034;5.262;2023-01-15T05:09:00;8.60;79.40
12839;DHT22;6486;51.034;5.262;2023-01-15T05:11:27;8.60;80.00
12839;DHT22;6486;51.034;5.262;2023-01-15T05:13:53;8.60;79.30
12839;DHT22;6486;51.034;5.262;2023-01-15T05:16:24;8.60;79.30
12839;DHT22;6486;51.034;5.262;2023-01-15T05:18:51;8.60;79.30
12839;DHT22;6486;51.034;5.262;2023-01-15T05:23:45;8.60;79.10
12839;DHT22;6486;51.034;5.262;2023-01-15T05:26:11;8.60;79.10
12839;DHT22;6486;51.034;5.262;2023-01-15T05:28:37;8.60;79.20
12839;DHT22;6486;51.034;5.262;2023-01-15T05:31:07;8.60;79.10
12839;DHT22;6486;51.034;5.262;2023-01-15T05:33:33;8.50;79.10
12839;DHT22;6486;51.034;5.262;2023-01-15T05:36:08;8.50;79.10
12839;DHT22;6486;51.034;5.262;2023-01-15T05:38:34;8.50;79.00
12839;DHT22;6486;51.034;5.262;2023-01-15T05:41:08;8.50;79.00
12839;DHT22;6486;51.034;5.262;2023-01-15T05:43:53;8.50;79.00
12839;DHT22;6486;51.034;5.262;2023-01-15T05:46:20;8.50;78.90
12839;DHT22;6486;51.034;5.262;2023-01-15T05:48:45;8.50;78.90
12839;DHT22;6486;51.034;5.262;2023-01-15T05:51:11;8.50;79.00
12839;DHT22;6486;51.034;5.262;2023-01-15T05:53:37;8.40;78.80
12839;DHT22;6486;51.034;5.262;2023-01-15T05:56:03;8.40;78.80
12839;DHT22;6486;51.034;5.262;2023-01-15T05:58:30;8.40;78.80
12839;DHT22;6486;51.034;5.262;2023-01-15T06:00:56;8.40;78.90
12839;DHT22;6486;51.034;5.262;2023-01-15T06:03:23;8.40;78.60
12839;DHT22;6486;51.034;5.262;2023-01-15T06:05:52;8.40;78.40
12839;DHT22;6486;51.034;5.262;2023-01-15T06:08:18;8.40;78.30
12839;DHT22;6486;51.034;5.262;2023-01-15T06:10:44;8.40;78.20
12839;DHT22;6486;51.034;5.262;2023-01-15T06:13:11;8.40;78.30
12839;DHT22;6486;51.034;5.262;2023-01-15T06:15:37;8.50;78.30
12839;DHT22;6486;51.034;5.262;2023-01-15T06:18:03;8.50;78.30
12839;DHT22;6486;51.034;5.262;2023-01-15T06:20:29;8.50;78.20
12839;DHT22;6486;51.034;5.262;2023-01-15T06:22:54;8.40;78.70
12839;DHT22;6486;51.034;5.262;2023-01-15T06:25:20;8.40;78.30
12839;DHT22;6486;51.034;5.262;2023-01-15T06:27:46;8.40;78.30
12839;DHT22;6486;51.034;5.262;2023-01-15T06:30:14;8.40;77.90
12839;DHT22;6486;51.034;5.262;2023-01-15T06:32:40;8.40;77.90
12839;DHT22;6486;51.034;5.262;2023-01-15T06:35:06;8.40;77.90
12839;DHT22;6486;51.034;5.262;2023-01-15T06:37:31;8.40;78.10
12839;DHT22;6486;51.034;5.262;2023-01-15T06:39:57;8.30;77.90
12839;DHT22;6486;51.034;5.262;2023-01-15T06:42:23;8.30;78.00
12839;DHT22;6486;51.034;5.262;2023-01-15T06:45:09;8.30;77.80
12839;DHT22;6486;51.034;5.262;2023-01-15T06:47:54;8.30;77.80
12839;DHT22;6486;51.034;5.262;2023-01-15T06:50:20;8.20;77.80
12839;DHT22;6486;51.034;5.262;2023-01-15T06:52:45;8.20;77.80
12839;DHT22;6486;51.034;5.262;2023-01-15T06:55:11;8.20;77.70
12839;DHT22;6486;51.034;5.262;2023-01-15T06:57:38;8.20;77.70
12839;DHT22;6486;51.034;5.262;2023-01-15T07:00:05;8.20;77.70
12839;DHT22;6486;51.034;5.262;2023-01-15T07:02:32;8.20;77.50
12839;DHT22;6486;51.034;5.262;2023-01-15T07:04:57;8.10;76.90
12839;DHT22;6486;51.034;5.262;2023-01-15T07:07:23;8.10;76.80
12839;DHT22;6486;51.034;5.262;2023-01-15T07:09:49;8.00;76.70
12839;DHT22;6486;51.034;5.262;2023-01-15T07:12:15;8.00;76.60
12839;DHT22;6486;51.034;5.262;2023-01-15T07:14:41;8.00;76.60
12839;DHT22;6486;51.034;5.262;2023-01-15T07:17:07;8.00;76.00
12839;DHT22;6486;51.034;5.262;2023-01-15T07:19:33;7.90;76.10
12839;DHT22;6486;51.034;5.262;2023-01-15T07:21:59;7.80;76.20
12839;DHT22;6486;51.034;5.262;2023-01-15T07:24:25;7.80;76.00
12839;DHT22;6486;51.034;5.262;2023-01-15T07:26:50;7.70;76.20
12839;DHT22;6486;51.034;5.262;2023-01-15T07:29:16;7.70;76.30
12839;DHT22;6486;51.034;5.262;2023-01-15T07:31:42;7.60;76.40
12839;DHT22;6486;51.034;5.262;2023-01-15T07:34:08;7.60;76.50
12839;DHT22;6486;51.034;5.262;2023-01-15T07:36:33;7.60;76.40
12839;DHT22;6486;51.034;5.262;2023-01-15T07:38:59;7.60;76.40
12839;DHT22;6486;51.034;5.262;2023-01-15T07:41:24;7.50;76.40
12839;DHT22;6486;51.034;5.262;2023-01-15T07:44:10;7.50;76.60
12839;DHT22;6486;51.034;5.262;2023-01-15T07:46:56;7.40;76.60
12839;DHT22;6486;51.034;5.262;2023-01-15T07:49:42;7.40;76.70
12839;DHT22;6486;51.034;5.262;2023-01-15T07:52:12;7.40;76.80
12839;DHT22;6486;51.034;5.262;2023-01-15T07:54:37;7.40;76.80
12839;DHT22;6486;51.034;5.262;2023-01-15T07:57:03;7.30;76.80
12839;DHT22;6486;51.034;5.262;2023-01-15T07:59:29;7.30;77.00
12839;DHT22;6486;51.034;5.262;2023-01-15T08:01:55;7.30;77.10
12839;DHT22;6486;51.034;5.262;2023-01-15T08:04:21;7.30;77.20
12839;DHT22;6486;51.034;5.262;2023-01-15T08:06:46;7.30;77.20
12839;DHT22;6486;51.034;5.262;2023-01-15T08:09:12;7.20;77.20
12839;DHT22;6486;51.034;5.262;2023-01-15T08:11:38;7.20;77.30
12839;DHT22;6486;51.034;5.262;2023-01-15T08:14:22;7.20;77.50
12839;DHT22;6486;51.034;5.262;2023-01-15T08:17:06;7.20;77.50
12839;DHT22;6486;51.034;5.262;2023-01-15T08:19:31;7.20;77.60
12839;DHT22;6486;51.034;5.262;2023-01-15T08:21:58;7.20;77.60
12839;DHT22;6486;51.034;5.262;2023-01-15T08:24:25;7.20;77.60
12839;DHT22;6486;51.034;5.262;2023-01-15T08:26:51;7.20;77.60
12839;DHT22;6486;51.034;5.262;2023-01-15T08:29:18;7.20;77.60
12839;DHT22;6486;51.034;5.262;2023-01-15T08:31:44;7.20;77.60
12839;DHT22;6486;51.034;5.262;2023-01-15T08:34:09;7.30;77.90
12839;DHT22;6486;51.034;5.262;2023-01-15T08:36:35;7.30;77.90
12839;DHT22;6486;51.034;5.262;2023-01-15T08:39:01;7.30;77.80
12839;DHT22;6486;51.034;5.262;2023-01-15T08:41:27;7.30;77.80
12839;DHT22;6486;51.034;5.262;2023-01-15T08:43:52;7.30;77.70
12839;DHT22;6486;51.034;5.262;2023-01-15T08:46:19;7.40;77.80
12839;DHT22;6486;51.034;5.262;2023-01-15T08:48:45;7.40;77.80
12839;DHT22;6486;51.034;5.262;2023-01-15T08:51:11;7.40;77.70
12839;DHT22;6486;51.034;5.262;2023-01-15T08:53:37;7.50;77.70
12839;DHT22;6486;51.034;5.262;2023-01-15T08:56:04;7.50;77.70
12839;DHT22;6486;51.034;5.262;2023-01-15T08:58:33;7.50;77.70
12839;DHT22;6486;51.034;5.262;2023-01-15T09:01:06;7.60;77.80
12839;DHT22;6486;51.034;5.262;2023-01-15T09:03:33;7.60;77.50
12839;DHT22;6486;51.034;5.262;2023-01-15T09:05:59;7.70;77.20
12839;DHT22;6486;51.034;5.262;2023-01-15T09:08:26;7.70;77.10
12839;DHT22;6486;51.034;5.262;2023-01-15T09:10:59;7.70;77.20
12839;DHT22;6486;51.034;5.262;2023-01-15T09:13:26;7.70;77.10
12839;DHT22;6486;51.034;5.262;2023-01-15T09:15:52;7.80;77.20
12839;DHT22;6486;51.034;5.262;2023-01-15T09:18:18;7.80;76.70
12839;DHT22;6486;51.034;5.262;2023-01-15T09:20:45;7.90;76.60
12839;DHT22;6486;51.034;5.262;2023-01-15T09:23:11;7.90;76.50
12839;DHT22;6486;51.034;5.262;2023-01-15T09:25:37;8.00;76.60
12839;DHT22;6486;51.034;5.262;2023-01-15T09:28:03;8.00;76.60
12839;DHT22;6486;51.034;5.262;2023-01-15T09:30:28;8.00;76.40
12839;DHT22;6486;51.034;5.262;2023-01-15T09:32:54;8.10;76.30
12839;DHT22;6486;51.034;5.262;2023-01-15T09:35:20;8.10;76.30
12839;DHT22;6486;51.034;5.262;2023-01-15T09:37:53;8.20;76.10
12839;DHT22;6486;51.034;5.262;2023-01-15T09:40:56;8.20;75.70
12839;DHT22;6486;51.034;5.262;2023-01-15T09:54:44;8.30;74.40
12839;DHT22;6486;51.034;5.262;2023-01-15T09:57:14;8.30;74.60
12839;DHT22;6486;51.034;5.262;2023-01-15T09:59:43;8.40;74.90
12839;DHT22;6486;51.034;5.262;2023-01-15T10:02:34;8.40;74.30
12839;DHT22;6486;51.034;5.262;2023-01-15T10:05:06;8.40;74.30
12839;DHT22;6486;51.034;5.262;2023-01-15T10:07:53;8.40;73.80
12839;DHT22;6486;51.034;5.262;2023-01-15T10:10:25;8.50;73.40
12839;DHT22;6486;51.034;5.262;2023-01-15T10:12:57;8.60;73.50
12839;DHT22;6486;51.034;5.262;2023-01-15T10:17:59;8.60;71.90
12839;DHT22;6486;51.034;5.262;2023-01-15T10:20:32;8.50;71.90
12839;DHT22;6486;51.034;5.262;2023-01-15T10:23:34;8.60;71.80
12839;DHT22;6486;51.034;5.262;2023-01-15T10:29:16;8.70;71.20
12839;DHT22;6486;51.034;5.262;2023-01-15T10:31:48;8.70;71.00
12839;DHT22;6486;51.034;5.262;2023-01-15T10:40:38;8.70;70.40
12839;DHT22;6486;51.034;5.262;2023-01-15T10:43:12;8.60;70.00
12839;DHT22;6486;51.034;5.262;2023-01-15T10:45:50;8.50;69.70
12839;DHT22;6486;51.034;5.262;2023-01-15T10:50:49;8.50;69.90
12839;DHT22;6486;51.034;5.262;2023-01-15T10:53:29;8.50;70.00
12839;DHT22;6486;51.034;5.262;2023-01-15T10:56:12;8.50;70.00
12839;DHT22;6486;51.034;5.262;2023-01-15T10:58:51;8.40;70.20
12839;DHT22;6486;51.034;5.262;2023-01-15T11:01:20;8.40;69.80
12839;DHT22;6486;51.034;5.262;2023-01-15T11:03:48;8.30;70.00
12839;DHT22;6486;51.034;5.262;2023-01-15T11:06:16;8.30;70.10
12839;DHT22;6486;51.034;5.262;2023-01-15T11:08:45;8.20;70.20
12839;DHT22;6486;51.034;5.262;2023-01-15T11:11:34;8.20;70.50
12839;DHT22;6486;51.034;5.262;2023-01-15T11:14:38;8.20;70.50
12839;DHT22;6486;51.034;5.262;2023-01-15T11:17:23;8.30;70.30
12839;DHT22;6486;51.034;5.262;2023-01-15T11:22:43;8.40;69.90
12839;DHT22;6486;51.034;5.262;2023-01-15T11:25:09;8.50;69.70
12839;DHT22;6486;51.034;5.262;2023-01-15T11:27:36;8.50;69.80
12839;DHT22;6486;51.034;5.262;2023-01-15T11:30:04;8.60;69.90
12839;DHT22;6486;51.034;5.262;2023-01-15T11:32:35;8.70;69.90
12839;DHT22;6486;51.034;5.262;2023-01-15T11:37:33;8.80;69.80
12839;DHT22;6486;51.034;5.262;2023-01-15T11:40:00;8.80;69.30
12839;DHT22;6486;51.034;5.262;2023-01-15T11:42:37;8.80;69.50
12839;DHT22;6486;51.034;5.262;2023-01-15T11:45:23;8.80;69.10
12839;DHT22;6486;51.034;5.262;2023-01-15T11:48:22;8.80;68.50
12839;DHT22;6486;51.034;5.262;2023-01-15T11:51:11;8.80;68.60
12839;DHT22;6486;51.034;5.262;2023-01-15T11:53:52;8.80;68.70
12839;DHT22;6486;51.034;5.262;2023-01-15T11:56:25;8.90;69.30
12839;DHT22;6486;51.034;5.262;2023-01-15T11:59:01;8.90;69.00
12839;DHT22;6486;51.034;5.262;2023-01-15T12:01:33;9.00;68.80
12839;DHT22;6486;51.034;5.262;2023-01-15T12:04:06;9.10;68.80
12839;DHT22;6486;51.034;5.262;2023-01-15T12:06:35;9.10;68.90
12839;DHT22;6486;51.034;5.262;2023-01-15T12:10:08;9.10;68.50
12839;DHT22;6486;51.034;5.262;2023-01-15T12:28:22;9.10;68.20
12839;DHT22;6486;51.034;5.262;2023-01-15T12:31:15;9.10;67.70
12839;DHT22;6486;51.034;5.262;2023-01-15T12:34:07;9.10;67.50
12839;DHT22;6486;51.034;5.262;2023-01-15T12:36:44;9.10;67.50
12839;DHT22;6486;51.034;5.262;2023-01-15T12:39:37;9.10;67.80
12839;DHT22;6486;51.034;5.262;2023-01-15T12:42:07;9.10;67.80
12839;DHT22;6486;51.034;5.262;2023-01-15T12:44:55;9.00;67.50
12839;DHT22;6486;51.034;5.262;2023-01-15T12:47:57;9.00;67.60
12839;DHT22;6486;51.034;5.262;2023-01-15T12:50:48;8.90;67.80
12839;DHT22;6486;51.034;5.262;2023-01-15T12:54:03;8.90;67.70
12839;DHT22;6486;51.034;5.262;2023-01-15T12:56:27;8.90;67.70
12839;DHT22;6486;51.034;5.262;2023-01-15T12:59:02;8.90;67.30
12839;DHT22;6486;51.034;5.262;2023-01-15T13:04:31;8.90;67.70
12839;DHT22;6486;51.034;5.262;2023-01-15T13:07:27;9.00;67.90
12839;DHT22;6486;51.034;5.262;2023-01-15T13:10:01;9.00;68.00
12839;DHT22;6486;51.034;5.262;2023-01-15T13:12:32;9.00;68.00
12839;DHT22;6486;51.034;5.262;2023-01-15T13:14:59;8.90;68.10
12839;DHT22;6486;51.034;5.262;2023-01-15T13:28:32;8.90;68.50
12839;DHT22;6486;51.034;5.262;2023-01-15T13:31:11;8.80;68.50
12839;DHT22;6486;51.034;5.262;2023-01-15T13:33:53;8.80;68.40
12839;DHT22;6486;51.034;5.262;2023-01-15T13:36:43;8.80;68.80
12839;DHT22;6486;51.034;5.262;2023-01-15T13:39:19;8.80;68.60
12839;DHT22;6486;51.034;5.262;2023-01-15T13:41:51;8.80;68.80
12839;DHT22;6486;51.034;5.262;2023-01-15T13:44:46;8.80;68.90
12839;DHT22;6486;51.034;5.262;2023-01-15T13:47:17;8.80;68.90
12839;DHT22;6486;51.034;5.262;2023-01-15T13:49:56;8.80;68.80
12839;DHT22;6486;51.034;5.262;2023-01-15T13:52:27;8.80;68.90
12839;DHT22;6486;51.034;5.262;2023-01-15T13:54:57;8.80;68.80
12839;DHT22;6486;51.034;5.262;2023-01-15T13:57:32;8.80;69.10
12839;DHT22;6486;51.034;5.262;2023-01-15T13:59:59;8.70;68.90
12839;DHT22;6486;51.034;5.262;2023-01-15T14:02:28;8.70;68.60
12839;DHT22;6486;51.034;5.262;2023-01-15T14:04:55;8.70;68.40
12839;DHT22;6486;51.034;5.262;2023-01-15T14:07:31;8.70;68.60
12839;DHT22;6486;51.034;5.262;2023-01-15T14:18:13;8.70;68.80
12839;DHT22;6486;51.034;5.262;2023-01-15T14:20:51;8.70;68.70
12839;DHT22;6486;51.034;5.262;2023-01-15T14:34:17;8.60;69.10
12839;DHT22;6486;51.034;5.262;2023-01-15T14:36:55;8.60;69.40
12839;DHT22;6486;51.034;5.262;2023-01-15T14:42:27;8.60;69.90
12839;DHT22;6486;51.034;5.262;2023-01-15T14:47:52;8.50;70.40
12839;DHT22;6486;51.034;5.262;2023-01-15T14:55:29;8.30;71.70
12839;DHT22;6486;51.034;5.262;2023-01-15T14:58:05;8.30;72.20
12839;DHT22;6486;51.034;5.262;2023-01-15T15:00:39;8.20;73.50
12839;DHT22;6486;51.034;5.262;2023-01-15T15:03:34;8.20;73.00
12839;DHT22;6486;51.034;5.262;2023-01-15T15:06:03;8.20;73.20
12839;DHT22;6486;51.034;5.262;2023-01-15T15:08:32;8.10;73.20
12839;DHT22;6486;51.034;5.262;2023-01-15T15:10:59;8.10;73.20
12839;DHT22;6486;51.034;5.262;2023-01-15T15:13:35;8.10;73.40
12839;DHT22;6486;51.034;5.262;2023-01-15T15:16:18;8.10;73.40
12839;DHT22;6486;51.034;5.262;2023-01-15T15:21:32;8.10;73.30
12839;DHT22;6486;51.034;5.262;2023-01-15T15:26:30;8.10;73.30
12839;DHT22;6486;51.034;5.262;2023-01-15T15:29:11;8.10;73.20
12839;DHT22;6486;51.034;5.262;2023-01-15T15:31:40;8.10;73.10
12839;DHT22;6486;51.034;5.262;2023-01-15T15:34:06;8.10;73.10
12839;DHT22;6486;51.034;5.262;2023-01-15T15:36:39;8.10;73.20
12839;DHT22;6486;51.034;5.262;2023-01-15T15:39:26;8.10;73.30
12839;DHT22;6486;51.034;5.262;2023-01-15T15:41:54;8.10;73.20
12839;DHT22;6486;51.034;5.262;2023-01-15T15:44:49;8.10;73.20
12839;DHT22;6486;51.034;5.262;2023-01-15T15:47:39;8.20;73.40
12839;DHT22;6486;51.034;5.262;2023-01-15T15:50:26;8.10;73.00
12839;DHT22;6486;51.034;5.262;2023-01-15T15:52:52;8.20;73.20
12839;DHT22;6486;51.034;5.262;2023-01-15T15:55:19;8.20;73.10
12839;DHT22;6486;51.034;5.262;2023-01-15T15:57:55;8.20;73.00
12839;DHT22;6486;51.034;5.262;2023-01-15T16:00:33;8.20;72.90
12839;DHT22;6486;51.034;5.262;2023-01-15T16:03:17;8.20;72.90
12839;DHT22;6486;51.034;5.262;2023-01-15T16:06:03;8.20;72.80
12839;DHT22;6486;51.034;5.262;2023-01-15T16:08:31;8.20;72.90
12839;DHT22;6486;51.034;5.262;2023-01-15T16:11:06;8.20;72.70
12839;DHT22;6486;51.034;5.262;2023-01-15T16:13:44;8.20;72.80
12839;DHT22;6486;51.034;5.262;2023-01-15T16:16:11;8.20;72.70
12839;DHT22;6486;51.034;5.262;2023-01-15T16:18:41;8.20;72.90
12839;DHT22;6486;51.034;5.262;2023-01-15T16:21:10;8.20;72.80
12839;DHT22;6486;51.034;5.262;2023-01-15T16:23:40;8.10;72.70
12839;DHT22;6486;51.034;5.262;2023-01-15T16:26:15;8.20;72.90
12839;DHT22;6486;51.034;5.262;2023-01-15T16:28:56;8.20;73.70
12839;DHT22;6486;51.034;5.262;2023-01-15T16:31:23;8.20;73.00
12839;DHT22;6486;51.034;5.262;2023-01-15T16:33:54;8.10;72.80
12839;DHT22;6486;51.034;5.262;2023-01-15T16:36:21;8.10;72.90
12839;DHT22;6486;51.034;5.262;2023-01-15T16:38:48;8.10;72.80
12839;DHT22;6486;51.034;5.262;2023-01-15T16:41:26;8.20;73.10
12839;DHT22;6486;51.034;5.262;2023-01-15T16:43:56;8.10;72.90
12839;DHT22;6486;51.034;5.262;2023-01-15T16:46:24;8.10;72.90
12839;DHT22;6486;51.034;5.262;2023-01-15T16:49:18;8.10;72.90
12839;DHT22;6486;51.034;5.262;2023-01-15T16:51:44;8.10;73.00
12839;DHT22;6486;51.034;5.262;2023-01-15T16:57:31;8.10;72.90
12839;DHT22;6486;51.034;5.262;2023-01-15T17:00:01;8.10;73.00
12839;DHT22;6486;51.034;5.262;2023-01-15T17:02:39;8.10;73.20
12839;DHT22;6486;51.034;5.262;2023-01-15T17:05:32;8.10;73.30
12839;DHT22;6486;51.034;5.262;2023-01-15T17:07:57;8.10;73.50
12839;DHT22;6486;51.034;5.262;2023-01-15T17:10:25;8.00;73.70
12839;DHT22;6486;51.034;5.262;2023-01-15T17:12:52;8.00;74.00
12839;DHT22;6486;51.034;5.262;2023-01-15T17:17:53;7.90;74.50
12839;DHT22;6486;51.034;5.262;2023-01-15T17:20:21;7.80;74.70
12839;DHT22;6486;51.034;5.262;2023-01-15T17:22:56;7.80;75.20
12839;DHT22;6486;51.034;5.262;2023-01-15T17:25:22;7.80;75.40
12839;DHT22;6486;51.034;5.262;2023-01-15T17:27:49;7.70;75.30
12839;DHT22;6486;51.034;5.262;2023-01-15T17:30:15;7.70;75.60
12839;DHT22;6486;51.034;5.262;2023-01-15T17:32:41;7.70;75.70
12839;DHT22;6486;51.034;5.262;2023-01-15T17:35:24;7.70;75.70
12839;DHT22;6486;51.034;5.262;2023-01-15T17:37:50;7.70;75.70
12839;DHT22;6486;51.034;5.262;2023-01-15T17:40:16;7.70;75.70
12839;DHT22;6486;51.034;5.262;2023-01-15T17:42:42;7.70;75.60
12839;DHT22;6486;51.034;5.262;2023-01-15T17:45:17;7.70;75.50
12839;DHT22;6486;51.034;5.262;2023-01-15T17:47:43;7.70;75.60
12839;DHT22;6486;51.034;5.262;2023-01-15T17:50:09;7.70;75.50
12839;DHT22;6486;51.034;5.262;2023-01-15T17:52:35;7.70;75.50
12839;DHT22;6486;51.034;5.262;2023-01-15T17:55:01;7.70;75.40
12839;DHT22;6486;51.034;5.262;2023-01-15T17:57:45;7.70;75.60
12839;DHT22;6486;51.034;5.262;2023-01-15T18:00:29;7.70;75.60
12839;DHT22;6486;51.034;5.262;2023-01-15T18:03:17;7.70;75.60
12839;DHT22;6486;51.034;5.262;2023-01-15T18:06:02;7.60;75.40
12839;DHT22;6486;51.034;5.262;2023-01-15T18:08:29;7.60;75.40
12839;DHT22;6486;51.034;5.262;2023-01-15T18:10:55;7.60;75.40
12839;DHT22;6486;51.034;5.262;2023-01-15T18:13:21;7.60;75.40
12839;DHT22;6486;51.034;5.262;2023-01-15T18:15:47;7.60;75.50
12839;DHT22;6486;51.034;5.262;2023-01-15T18:18:12;7.60;75.60
12839;DHT22;6486;51.034;5.262;2023-01-15T18:20:40;7.60;75.50
12839;DHT22;6486;51.034;5.262;2023-01-15T18:23:05;7.60;75.40
12839;DHT22;6486;51.034;5.262;2023-01-15T18:25:33;7.60;75.40
12839;DHT22;6486;51.034;5.262;2023-01-15T18:27:58;7.70;75.40
12839;DHT22;6486;51.034;5.262;2023-01-15T18:30:24;7.70;75.40
12839;DHT22;6486;51.034;5.262;2023-01-15T18:32:50;7.60;75.50
12839;DHT22;6486;51.034;5.262;2023-01-15T18:35:15;7.60;75.60
12839;DHT22;6486;51.034;5.262;2023-01-15T18:37:43;7.60;75.70